createdAt,value
2022-10-11T00:02:02.462Z,23.20
2022-10-11T00:04:29.011Z,23.20
2022-10-11T00:06:55.604Z,23.20
2022-10-11T00:09:22.481Z,23.20
2022-10-11T00:11:49.111Z,23.20
2022-10-11T00:14:15.681Z,23.20
2022-10-11T00:16:44.372Z,23.20
2022-10-11T00:19:11.349Z,23.20
2022-10-11T00:21:37.908Z,23.20
2022-10-11T00:24:04.848Z,23.10
2022-10-11T00:26:31.405Z,23.10
2022-10-11T00:28:57.952Z,23.10
2022-10-11T00:31:24.496Z,23.10
2022-10-11T00:33:51.031Z,23.10
2022-10-11T00:36:18.696Z,23.10
2022-10-11T00:38:45.447Z,23.10
2022-10-11T00:41:12.153Z,23.20
2022-10-11T00:43:38.755Z,23.20
2022-10-11T00:46:18.727Z,23.20
2022-10-11T00:48:48.028Z,23.20
2022-10-11T00:51:18.317Z,23.10
2022-10-11T00:53:44.858Z,23.20
2022-10-11T00:56:14.979Z,23.10
2022-10-11T00:58:41.615Z,23.20
2022-10-11T01:01:08.200Z,23.10
2022-10-11T01:03:35.306Z,23.10
2022-10-11T01:06:03.635Z,23.10
2022-10-11T01:08:30.433Z,23.10
2022-10-11T01:10:56.991Z,23.10
2022-10-11T01:13:58.179Z,23.10
2022-10-11T01:16:36.152Z,23.10
2022-10-11T01:19:39.917Z,23.10
2022-10-11T01:22:25.962Z,23.10
2022-10-11T01:25:14.976Z,23.10
2022-10-11T01:28:11.406Z,23.10
2022-10-11T01:30:37.990Z,23.00
2022-10-11T01:33:10.799Z,23.10
2022-10-11T01:36:35.782Z,23.10
2022-10-11T01:39:09.241Z,23.10
2022-10-11T01:41:38.933Z,23.10
2022-10-11T01:44:05.658Z,23.10
2022-10-11T01:46:32.221Z,23.10
2022-10-11T01:49:00.225Z,23.10
2022-10-11T01:51:47.161Z,23.10
2022-10-11T01:55:03.852Z,23.10
2022-10-11T01:57:31.307Z,23.10
2022-10-11T02:00:06.231Z,23.10
2022-10-11T02:02:57.178Z,23.10
2022-10-11T02:05:49.449Z,23.10
2022-10-11T02:08:22.861Z,23.10
2022-10-11T02:11:09.557Z,23.10
2022-10-11T02:14:16.055Z,23.00
2022-10-11T02:17:07.397Z,23.00
2022-10-11T02:19:43.103Z,23.10
2022-10-11T02:22:28.051Z,23.10
2022-10-11T02:24:56.104Z,23.10
2022-10-11T02:27:24.283Z,23.10
2022-10-11T02:29:51.021Z,23.10
2022-10-11T02:32:17.668Z,23.10
2022-10-11T02:34:49.997Z,23.10
2022-10-11T02:37:36.567Z,23.10
2022-10-11T02:40:25.558Z,23.10
2022-10-11T02:43:12.435Z,23.10
2022-10-11T02:45:43.569Z,23.10
2022-10-11T02:48:10.951Z,23.10
2022-10-11T02:50:38.767Z,23.10
2022-10-11T02:53:05.641Z,23.10
2022-10-11T02:55:32.292Z,23.10
2022-10-11T02:57:58.844Z,23.10
2022-10-11T03:00:25.393Z,23.00
2022-10-11T03:02:51.940Z,23.10
2022-10-11T03:05:18.500Z,23.10
2022-10-11T03:07:45.063Z,23.10
2022-10-11T03:10:11.685Z,23.00
2022-10-11T03:12:38.231Z,23.10
2022-10-11T03:15:05.245Z,23.10
2022-10-11T03:17:36.485Z,23.10
2022-10-11T03:20:04.960Z,23.00
2022-10-11T03:22:31.522Z,23.10
2022-10-11T03:25:03.393Z,23.00
2022-10-11T03:27:30.864Z,23.00
2022-10-11T03:29:57.722Z,23.00
2022-10-11T03:32:24.385Z,23.00
2022-10-11T03:34:50.916Z,23.00
2022-10-11T03:37:17.493Z,23.00
2022-10-11T03:39:45.535Z,23.00
2022-10-11T03:42:12.690Z,23.00
2022-10-11T03:44:39.245Z,23.00
2022-10-11T03:47:06.038Z,23.00
2022-10-11T03:49:32.577Z,23.00
2022-10-11T03:51:59.168Z,23.00
2022-10-11T03:54:25.976Z,23.00
2022-10-11T03:56:52.769Z,23.00
2022-10-11T03:59:19.319Z,23.00
2022-10-11T04:01:45.946Z,23.00
2022-10-11T04:04:12.497Z,23.10
2022-10-11T04:06:39.081Z,23.00
2022-10-11T04:09:05.631Z,23.00
2022-10-11T04:11:32.637Z,23.00
2022-10-11T04:13:59.198Z,23.10
2022-10-11T04:16:25.742Z,23.10
2022-10-11T04:18:52.352Z,23.10
2022-10-11T04:21:18.905Z,23.20
2022-10-11T04:23:45.482Z,23.20
2022-10-11T04:26:12.034Z,23.20
2022-10-11T04:28:38.632Z,23.20
2022-10-11T04:31:06.522Z,23.30
2022-10-11T04:33:33.069Z,23.20
2022-10-11T04:35:59.636Z,23.30
2022-10-11T04:38:26.275Z,23.30
2022-10-11T04:40:52.812Z,23.30
2022-10-11T04:43:19.397Z,23.30
2022-10-11T04:45:46.012Z,23.30
2022-10-11T04:48:13.877Z,23.30
2022-10-11T04:50:40.428Z,23.30
2022-10-11T04:53:06.988Z,23.40
2022-10-11T04:55:33.542Z,23.40
2022-10-11T04:58:00.838Z,23.40
2022-10-11T05:00:27.416Z,23.40
2022-10-11T05:02:54.409Z,23.40
2022-10-11T05:05:20.954Z,23.40
2022-10-11T05:07:47.506Z,23.40
2022-10-11T05:10:14.472Z,23.40
2022-10-11T05:12:41.030Z,23.50
2022-10-11T05:15:08.085Z,23.50
2022-10-11T05:17:34.908Z,23.60
2022-10-11T05:20:01.605Z,23.60
2022-10-11T05:22:28.178Z,23.60
2022-10-11T05:24:54.724Z,23.60
2022-10-11T05:27:21.278Z,23.60
2022-10-11T05:29:47.812Z,23.60
2022-10-11T05:32:14.485Z,23.60
2022-10-11T05:34:41.044Z,23.60
2022-10-11T05:37:07.602Z,23.60
2022-10-11T05:39:34.166Z,23.60
2022-10-11T05:42:00.712Z,23.70
2022-10-11T05:44:27.339Z,23.60
2022-10-11T05:46:53.886Z,23.70
2022-10-11T05:49:20.429Z,23.70
2022-10-11T05:51:47.002Z,23.70
2022-10-11T05:54:13.541Z,23.70
2022-10-11T05:56:40.096Z,23.70
2022-10-11T05:59:06.684Z,23.70
2022-10-11T06:01:33.350Z,23.60
2022-10-11T06:03:59.950Z,23.60
2022-10-11T06:06:26.537Z,23.50
2022-10-11T06:08:53.075Z,23.50
2022-10-11T06:11:25.193Z,23.50
2022-10-11T06:13:55.264Z,23.50
2022-10-11T06:16:21.862Z,23.50
2022-10-11T06:18:48.418Z,23.50
2022-10-11T06:21:15.440Z,23.50
2022-10-11T06:23:42.048Z,23.50
2022-10-11T06:26:09.586Z,23.50
2022-10-11T06:28:36.646Z,23.50
2022-10-11T06:31:04.154Z,23.50
2022-10-11T06:33:30.740Z,23.50
2022-10-11T06:35:58.843Z,23.50
2022-10-11T06:38:26.072Z,23.50
2022-10-11T06:40:52.610Z,23.50
2022-10-11T06:43:19.256Z,23.50
2022-10-11T06:45:45.796Z,23.50
2022-10-11T06:48:12.412Z,23.50
2022-10-11T06:50:58.386Z,23.40
2022-10-11T06:53:25.734Z,23.40
2022-10-11T06:55:52.281Z,23.40
2022-10-11T06:58:18.880Z,23.40
2022-10-11T07:00:45.499Z,23.40
2022-10-11T07:03:12.101Z,23.40
2022-10-11T07:05:38.646Z,23.40
2022-10-11T07:08:05.295Z,23.40
2022-10-11T07:10:31.853Z,23.40
2022-10-11T07:12:58.414Z,23.40
2022-10-11T07:15:25.083Z,23.40
2022-10-11T07:17:51.643Z,23.30
2022-10-11T07:20:18.274Z,23.40
2022-10-11T07:22:44.817Z,23.30
2022-10-11T07:25:11.374Z,23.30
2022-10-11T07:27:37.982Z,23.30
2022-10-11T07:30:04.987Z,23.30
2022-10-11T07:32:31.550Z,23.30
2022-10-11T07:34:58.409Z,23.30
2022-10-11T07:37:24.985Z,23.30
2022-10-11T07:39:51.563Z,23.30
2022-10-11T07:42:18.177Z,23.30
2022-10-11T07:44:44.724Z,23.30
2022-10-11T07:47:11.656Z,23.30
2022-10-11T07:49:38.258Z,23.30
2022-10-11T07:52:04.947Z,23.30
2022-10-11T07:54:32.696Z,23.30
2022-10-11T07:56:59.424Z,23.30
2022-10-11T07:59:26.021Z,23.20
2022-10-11T08:01:52.629Z,23.30
2022-10-11T08:04:21.223Z,23.20
2022-10-11T08:06:51.108Z,23.30
2022-10-11T08:09:19.853Z,23.30
2022-10-11T08:11:46.448Z,23.20
2022-10-11T08:14:13.146Z,23.20
2022-10-11T08:16:39.813Z,23.20
2022-10-11T08:19:06.570Z,23.20
2022-10-11T08:21:33.217Z,23.20
2022-10-11T08:24:01.124Z,23.20
2022-10-11T08:26:27.710Z,23.20
2022-10-11T08:28:54.317Z,23.20
2022-10-11T08:31:21.248Z,23.20
2022-10-11T08:33:47.798Z,23.20
2022-10-11T08:36:14.416Z,23.20
2022-10-11T08:38:41.376Z,23.20
2022-10-11T08:41:29.394Z,23.30
2022-10-11T08:44:02.337Z,23.20
2022-10-11T08:46:30.868Z,23.20
2022-10-11T08:48:57.627Z,23.30
2022-10-11T08:51:45.312Z,23.20
2022-10-11T08:54:21.463Z,23.30
2022-10-11T08:56:48.009Z,23.20
2022-10-11T08:59:46.361Z,23.20
2022-10-11T09:03:02.888Z,23.20
2022-10-11T09:05:22.176Z,23.20
2022-10-11T09:07:54.916Z,23.20
2022-10-11T09:10:34.730Z,23.20
2022-10-11T09:13:31.316Z,23.20
2022-10-11T09:16:05.969Z,23.20
2022-10-11T09:18:40.918Z,23.20
2022-10-11T09:21:38.352Z,23.20
2022-10-11T09:24:12.027Z,23.20
2022-10-11T09:26:53.652Z,23.20
2022-10-11T09:29:35.243Z,23.20
2022-10-11T09:32:01.800Z,23.20
2022-10-11T09:34:32.394Z,23.20
2022-10-11T09:37:22.353Z,23.20
2022-10-11T09:40:12.164Z,23.20
2022-10-11T09:42:38.700Z,23.20
2022-10-11T09:45:17.756Z,23.20
2022-10-11T09:47:44.351Z,23.20
2022-10-11T09:50:21.211Z,23.20
2022-10-11T09:52:54.948Z,23.20
2022-10-11T09:55:50.230Z,23.20
2022-10-11T09:58:33.848Z,23.20
2022-10-11T10:01:08.192Z,23.20
2022-10-11T10:03:39.607Z,23.20
2022-10-11T10:06:15.802Z,23.20
2022-10-11T10:08:47.511Z,23.20
2022-10-11T10:11:14.265Z,23.30
2022-10-11T10:13:51.243Z,23.30
2022-10-11T10:16:28.686Z,23.30
2022-10-11T10:19:05.753Z,23.30
2022-10-11T10:21:36.845Z,23.30
2022-10-11T10:24:09.186Z,23.30
2022-10-11T10:26:35.826Z,23.30
2022-10-11T10:29:08.478Z,23.30
2022-10-11T10:32:12.408Z,23.30
2022-10-11T10:34:35.346Z,23.30
2022-10-11T10:37:22.950Z,23.30
2022-10-11T10:39:57.690Z,23.30
2022-10-11T10:42:24.240Z,23.30
2022-10-11T10:44:56.797Z,23.30
2022-10-11T10:47:51.003Z,23.30
2022-10-11T10:50:30.822Z,23.30
2022-10-11T10:53:03.814Z,23.30
2022-10-11T10:55:35.562Z,23.30
2022-10-11T10:58:20.449Z,23.30
2022-10-11T11:00:48.675Z,23.30
2022-10-11T11:03:44.618Z,23.30
2022-10-11T11:06:22.921Z,23.30
2022-10-11T11:09:31.113Z,23.30
2022-10-11T11:12:18.791Z,23.30
2022-10-11T11:15:11.865Z,23.30
2022-10-11T11:18:01.877Z,23.30
2022-10-11T11:20:54.459Z,23.40
2022-10-11T11:23:23.371Z,23.30
2022-10-11T11:26:19.795Z,23.30
2022-10-11T11:29:14.198Z,23.30
2022-10-11T11:32:01.507Z,23.30
2022-10-11T11:34:31.648Z,23.30
2022-10-11T11:37:01.638Z,23.30
2022-10-11T11:39:48.986Z,23.30
2022-10-11T11:42:23.384Z,23.30
2022-10-11T11:44:50.594Z,23.40
2022-10-11T11:47:35.660Z,23.40
2022-10-11T11:50:15.119Z,23.40
2022-10-11T11:52:44.716Z,23.40
2022-10-11T11:55:34.831Z,23.50
2022-10-11T11:58:29.304Z,23.50
2022-10-11T12:01:07.474Z,23.40
2022-10-11T12:03:41.656Z,23.40
2022-10-11T12:06:14.622Z,23.40
2022-10-11T12:08:45.892Z,23.40
2022-10-11T12:11:29.515Z,23.40
2022-10-11T12:13:59.698Z,23.50
2022-10-11T12:16:27.073Z,23.50
2022-10-11T12:18:56.622Z,23.50
2022-10-11T12:21:32.815Z,23.50
2022-10-11T12:24:12.982Z,23.40
2022-10-11T12:26:58.514Z,23.40
2022-10-11T12:29:47.798Z,23.40
2022-10-11T12:32:36.146Z,23.50
2022-10-11T12:35:30.914Z,23.40
2022-10-11T12:38:25.258Z,23.40
2022-10-11T12:40:54.471Z,23.40
2022-10-11T12:43:25.631Z,23.40
2022-10-11T12:45:52.168Z,23.40
2022-10-11T12:48:37.207Z,23.50
2022-10-11T12:51:44.499Z,23.40
2022-10-11T12:54:27.471Z,23.40
2022-10-11T12:57:16.102Z,23.40
2022-10-11T12:59:44.543Z,23.40
2022-10-11T13:02:30.006Z,23.40
2022-10-11T13:05:08.113Z,23.40
2022-10-11T13:07:35.196Z,23.40
2022-10-11T13:10:02.842Z,23.40
2022-10-11T13:12:38.138Z,23.40
2022-10-11T13:15:08.407Z,23.40
2022-10-11T13:17:38.660Z,23.50
2022-10-11T13:20:19.534Z,23.40
2022-10-11T13:22:47.620Z,23.40
2022-10-11T13:25:22.690Z,23.40
2022-10-11T13:27:49.534Z,23.40
2022-10-11T13:30:21.640Z,23.40
2022-10-11T13:32:48.366Z,23.50
2022-10-11T13:35:24.739Z,23.50
2022-10-11T13:37:51.540Z,23.50
2022-10-11T13:40:19.857Z,23.50
2022-10-11T13:42:48.326Z,23.50
2022-10-11T13:45:16.531Z,23.50
2022-10-11T13:47:43.101Z,23.50
2022-10-11T13:50:15.834Z,23.50
2022-10-11T13:53:00.202Z,23.50
2022-10-11T13:55:28.873Z,23.50
2022-10-11T13:57:55.599Z,23.50
2022-10-11T14:00:33.739Z,23.50
2022-10-11T14:03:01.349Z,23.50
2022-10-11T14:05:40.259Z,23.50
2022-10-11T14:08:42.137Z,23.50
2022-10-11T14:11:09.664Z,23.50
2022-10-11T14:13:37.269Z,23.50
2022-10-11T14:16:20.530Z,23.50
2022-10-11T14:18:50.921Z,23.50
2022-10-11T14:21:45.594Z,23.50
2022-10-11T14:24:12.459Z,23.50
2022-10-11T14:26:43.904Z,23.50
2022-10-11T14:29:25.114Z,23.50
2022-10-11T14:31:51.990Z,23.50
2022-10-11T14:34:20.183Z,23.50
2022-10-11T14:36:47.071Z,23.50
2022-10-11T14:39:15.189Z,23.50
2022-10-11T14:41:41.822Z,23.50
2022-10-11T14:44:08.453Z,23.50
2022-10-11T14:46:41.323Z,23.50
2022-10-11T14:49:22.226Z,23.50
2022-10-11T14:51:49.664Z,23.50
2022-10-11T14:54:17.701Z,23.50
2022-10-11T14:56:44.478Z,23.50
2022-10-11T14:59:15.578Z,23.50
2022-10-11T15:01:42.214Z,23.50
2022-10-11T15:04:09.004Z,23.50
2022-10-11T15:06:37.718Z,23.50
2022-10-11T15:09:05.153Z,23.50
2022-10-11T15:11:31.786Z,23.50
2022-10-11T15:13:58.371Z,23.50
2022-10-11T15:16:26.729Z,23.50
2022-10-11T15:18:53.330Z,23.50
2022-10-11T15:21:21.328Z,23.50
2022-10-11T15:23:48.199Z,23.50
2022-10-11T15:26:16.049Z,23.50
2022-10-11T15:28:42.724Z,23.50
2022-10-11T15:31:10.595Z,23.50
2022-10-11T15:33:37.533Z,23.50
2022-10-11T15:36:05.592Z,23.50
2022-10-11T15:38:32.323Z,23.50
2022-10-11T15:40:59.379Z,23.50
2022-10-11T15:43:27.401Z,23.50
2022-10-11T15:45:54.610Z,23.50
2022-10-11T15:48:22.059Z,23.50
2022-10-11T15:50:49.627Z,23.50
2022-10-11T15:53:25.666Z,23.50
2022-10-11T15:55:53.350Z,23.50
2022-10-11T15:58:32.599Z,23.50
2022-10-11T16:01:00.723Z,23.50
2022-10-11T16:03:29.132Z,23.50
2022-10-11T16:05:58.911Z,23.50
2022-10-11T16:08:29.094Z,23.50
2022-10-11T16:10:55.724Z,23.50
2022-10-11T16:13:22.271Z,23.50
2022-10-11T16:15:49.731Z,23.50
2022-10-11T16:18:17.291Z,23.50
2022-10-11T16:20:45.122Z,23.50
2022-10-11T16:23:11.976Z,23.50
2022-10-11T16:25:38.994Z,23.50
2022-10-11T16:28:07.828Z,23.50
2022-10-11T16:30:35.320Z,23.50
2022-10-11T16:33:01.905Z,23.50
2022-10-11T16:35:32.411Z,23.50
2022-10-11T16:37:59.957Z,23.50
2022-10-11T16:40:28.099Z,23.50
2022-10-11T16:42:54.659Z,23.50
2022-10-11T16:45:21.467Z,23.50
2022-10-11T16:47:48.076Z,23.50
2022-10-11T16:50:14.687Z,23.50
2022-10-11T16:52:41.281Z,23.50
2022-10-11T16:55:08.130Z,23.50
2022-10-11T16:57:34.680Z,23.40
2022-10-11T17:00:01.272Z,23.50
2022-10-11T17:02:32.279Z,23.40
2022-10-11T17:04:59.189Z,23.40
2022-10-11T17:07:25.867Z,23.40
2022-10-11T17:09:52.446Z,23.40
2022-10-11T17:12:20.847Z,23.40
2022-10-11T17:14:47.558Z,23.40
2022-10-11T17:17:14.164Z,23.40
2022-10-11T17:19:45.129Z,23.40
2022-10-11T17:22:12.439Z,23.40
2022-10-11T17:24:39.055Z,23.40
2022-10-11T17:27:05.746Z,23.40
2022-10-11T17:29:32.359Z,23.40
2022-10-11T17:31:58.942Z,23.40
2022-10-11T17:34:25.500Z,23.40
2022-10-11T17:36:52.101Z,23.40
2022-10-11T17:39:21.157Z,23.40
2022-10-11T17:41:47.873Z,23.40
2022-10-11T17:44:17.137Z,23.40
2022-10-11T17:46:43.677Z,23.40
2022-10-11T17:49:11.509Z,23.40
2022-10-11T17:51:38.537Z,23.40
2022-10-11T17:54:06.028Z,23.40
2022-10-11T17:56:37.634Z,23.40
2022-10-11T17:59:04.817Z,23.40
2022-10-11T18:01:31.447Z,23.40
2022-10-11T18:03:59.556Z,23.40
2022-10-11T18:06:28.594Z,23.40
2022-10-11T18:08:55.808Z,23.30
2022-10-11T18:11:22.360Z,23.40
2022-10-11T18:13:49.867Z,23.40
2022-10-11T18:16:17.238Z,23.40
2022-10-11T18:18:43.833Z,23.40
2022-10-11T18:21:10.496Z,23.40
2022-10-11T18:23:38.190Z,23.30
2022-10-11T18:26:12.174Z,23.30
2022-10-11T18:28:39.075Z,23.40
2022-10-11T18:31:13.026Z,23.30
2022-10-11T18:33:40.525Z,23.30
2022-10-11T18:36:07.831Z,23.30
2022-10-11T18:38:34.750Z,23.30
2022-10-11T18:41:08.570Z,23.30
2022-10-11T18:43:35.384Z,23.30
2022-10-11T18:46:06.058Z,23.30
2022-10-11T18:48:33.129Z,23.30
2022-10-11T18:51:07.416Z,23.30
2022-10-11T18:53:35.277Z,23.30
2022-10-11T18:56:02.834Z,23.30
2022-10-11T18:58:30.121Z,23.30
2022-10-11T19:01:03.320Z,23.30
2022-10-11T19:03:34.864Z,23.30
2022-10-11T19:06:06.806Z,23.30
2022-10-11T19:08:33.554Z,23.30
2022-10-11T19:11:07.000Z,23.40
2022-10-11T19:13:34.417Z,23.30
2022-10-11T19:16:08.971Z,23.30
2022-10-11T19:18:38.370Z,23.30
2022-10-11T19:21:10.288Z,23.30
2022-10-11T19:23:41.361Z,23.30
2022-10-11T19:26:09.077Z,23.30
2022-10-11T19:28:36.030Z,23.40
2022-10-11T19:31:07.227Z,23.30
2022-10-11T19:33:34.217Z,23.40
2022-10-11T19:36:02.820Z,23.30
2022-10-11T19:38:30.374Z,23.40
2022-10-11T19:40:56.939Z,23.40
2022-10-11T19:43:23.491Z,23.30
2022-10-11T19:45:50.050Z,23.30
2022-10-11T19:48:16.627Z,23.40
2022-10-11T19:50:43.182Z,23.30
2022-10-11T19:53:09.736Z,23.30
2022-10-11T19:55:36.299Z,23.30
2022-10-11T19:58:08.048Z,23.30
2022-10-11T20:00:34.907Z,23.30
2022-10-11T20:03:01.460Z,23.30
2022-10-11T20:05:28.018Z,23.30
2022-10-11T20:07:54.702Z,23.30
2022-10-11T20:10:21.244Z,23.30
2022-10-11T20:12:47.798Z,23.30
2022-10-11T20:15:14.417Z,23.30
2022-10-11T20:17:49.964Z,23.30
2022-10-11T20:20:17.504Z,23.30
2022-10-11T20:22:44.045Z,23.30
2022-10-11T20:25:10.682Z,23.30
2022-10-11T20:27:37.245Z,23.30
2022-10-11T20:30:04.790Z,23.30
2022-10-11T20:32:31.338Z,23.30
2022-10-11T20:34:57.908Z,23.30
2022-10-11T20:37:24.454Z,23.30
2022-10-11T20:39:51.015Z,23.30
2022-10-11T20:42:17.557Z,23.30
2022-10-11T20:44:44.454Z,23.30
2022-10-11T20:47:11.027Z,23.30
2022-10-11T20:49:37.587Z,23.30
2022-10-11T20:52:04.145Z,23.30
2022-10-11T20:54:30.773Z,23.30
2022-10-11T20:56:57.543Z,23.30
2022-10-11T20:59:24.158Z,23.30
2022-10-11T21:01:50.731Z,23.30
2022-10-11T21:04:20.664Z,23.30
2022-10-11T21:06:47.859Z,23.30
2022-10-11T21:09:16.567Z,23.30
2022-10-11T21:11:43.692Z,23.30
2022-10-11T21:14:10.250Z,23.30
2022-10-11T21:16:36.789Z,23.30
2022-10-11T21:19:03.878Z,23.30
2022-10-11T21:21:30.510Z,23.30
2022-10-11T21:24:01.054Z,23.30
2022-10-11T21:26:28.354Z,23.20
2022-10-11T21:28:55.029Z,23.30
2022-10-11T21:31:22.323Z,23.20
2022-10-11T21:33:48.867Z,23.20
2022-10-11T21:36:17.094Z,23.30
2022-10-11T21:38:43.637Z,23.30
2022-10-11T21:41:14.902Z,23.30
2022-10-11T21:43:41.445Z,23.20
2022-10-11T21:46:11.725Z,23.30
2022-10-11T21:48:38.574Z,23.30
2022-10-11T21:51:05.325Z,23.30
2022-10-11T21:53:31.913Z,23.20
2022-10-11T21:55:59.170Z,23.30
2022-10-11T21:58:25.748Z,23.30
2022-10-11T22:00:53.041Z,23.30
2022-10-11T22:03:19.750Z,23.20
2022-10-11T22:05:46.598Z,23.20
2022-10-11T22:08:13.448Z,23.20
2022-10-11T22:10:42.938Z,23.20
2022-10-11T22:13:09.518Z,23.20
2022-10-11T22:15:36.218Z,23.20
2022-10-11T22:18:02.785Z,23.20
2022-10-11T22:20:29.350Z,23.20
2022-10-11T22:22:55.885Z,23.20
2022-10-11T22:25:22.846Z,23.20
2022-10-11T22:27:49.405Z,23.20
2022-10-11T22:30:16.030Z,23.20
2022-10-11T22:32:42.574Z,23.20
2022-10-11T22:35:09.208Z,23.20
2022-10-11T22:37:35.936Z,23.20
2022-10-11T22:40:02.640Z,23.20
2022-10-11T22:42:29.724Z,23.20
2022-10-11T22:44:56.628Z,23.20
2022-10-11T22:47:23.189Z,23.20
2022-10-11T22:49:49.741Z,23.20
2022-10-11T22:52:16.274Z,23.20
2022-10-11T22:54:42.816Z,23.20
2022-10-11T22:57:09.351Z,23.20
2022-10-11T22:59:35.972Z,23.20
2022-10-11T23:02:02.505Z,23.20
2022-10-11T23:04:29.078Z,23.20
2022-10-11T23:06:55.608Z,23.20
2022-10-11T23:09:22.245Z,23.20
2022-10-11T23:11:48.785Z,23.20
2022-10-11T23:14:15.443Z,23.20
2022-10-11T23:16:41.980Z,23.20
2022-10-11T23:19:08.530Z,23.20
2022-10-11T23:21:35.070Z,23.20
2022-10-11T23:24:01.613Z,23.20
2022-10-11T23:26:28.160Z,23.20
2022-10-11T23:28:55.172Z,23.10
2022-10-11T23:31:21.777Z,23.20
2022-10-11T23:33:48.402Z,23.20
2022-10-11T23:36:33.272Z,23.20
2022-10-11T23:38:59.841Z,23.10
2022-10-11T23:41:27.503Z,23.10
2022-10-11T23:43:54.036Z,23.10
2022-10-11T23:46:20.729Z,23.10
2022-10-11T23:48:47.286Z,23.10
2022-10-11T23:51:14.024Z,23.10
2022-10-11T23:53:40.834Z,23.10
2022-10-11T23:56:09.374Z,23.10
2022-10-11T23:58:36.353Z,23.10
